sensor_id;sensor_type;location;lat;lon;timestamp;pressure;altitude;pressure_sealevel;temperature;humidity
23223;BME280;11780;13.904;100.620;2023-01-10T00:00:54;101289.94;;;28.68;61.87
23223;BME280;11780;13.904;100.620;2023-01-10T00:03:25;101293.53;;;28.69;61.61
23223;BME280;11780;13.904;100.620;2023-01-10T00:05:55;101296.56;;;28.67;62.06
23223;BME280;11780;13.904;100.620;2023-01-10T00:08:25;101297.41;;;28.68;61.88
23223;BME280;11780;13.904;100.620;2023-01-10T00:11:10;101295.75;;;28.67;61.79
23223;BME280;11780;13.904;100.620;2023-01-10T00:13:59;101294.13;;;28.66;62.03
23223;BME280;11780;13.904;100.620;2023-01-10T00:16:30;101301.84;;;28.64;61.87
23223;BME280;11780;13.904;100.620;2023-01-10T00:19:01;101304.03;;;28.67;61.93
23223;BME280;11780;13.904;100.620;2023-01-10T00:21:30;101310.66;;;28.66;62.00
23223;BME280;11780;13.904;100.620;2023-01-10T00:24:01;101314.19;;;28.66;61.94
23223;BME280;11780;13.904;100.620;2023-01-10T00:26:57;101317.47;;;28.68;62.11
23223;BME280;11780;13.904;100.620;2023-01-10T00:29:30;101322.72;;;28.70;61.93
23223;BME280;11780;13.904;100.620;2023-01-10T00:32:00;101325.75;;;28.68;62.12
23223;BME280;11780;13.904;100.620;2023-01-10T00:34:30;101327.69;;;28.68;61.95
23223;BME280;11780;13.904;100.620;2023-01-10T00:37:01;101340.34;;;28.69;62.04
23223;BME280;11780;13.904;100.620;2023-01-10T00:39:31;101341.47;;;28.68;62.17
23223;BME280;11780;13.904;100.620;2023-01-10T00:42:01;101350.81;;;28.67;61.96
23223;BME280;11780;13.904;100.620;2023-01-10T00:44:50;101346.13;;;28.67;62.25
23223;BME280;11780;13.904;100.620;2023-01-10T00:47:20;101353.28;;;28.68;61.94
23223;BME280;11780;13.904;100.620;2023-01-10T00:49:50;101357.38;;;28.71;61.93
23223;BME280;11780;13.904;100.620;2023-01-10T00:52:20;101361.25;;;28.70;61.97
23223;BME280;11780;13.904;100.620;2023-01-10T00:54:50;101353.00;;;28.70;62.18
23223;BME280;11780;13.904;100.620;2023-01-10T00:57:20;101359.03;;;28.72;61.92
23223;BME280;11780;13.904;100.620;2023-01-10T00:59:50;101363.44;;;28.73;61.94
23223;BME280;11780;13.904;100.620;2023-01-10T01:02:20;101362.31;;;28.74;62.23
23223;BME280;11780;13.904;100.620;2023-01-10T01:04:51;101367.00;;;28.74;62.08
23223;BME280;11780;13.904;100.620;2023-01-10T01:07:21;101372.78;;;28.72;62.09
23223;BME280;11780;13.904;100.620;2023-01-10T01:10:09;101375.53;;;28.72;62.30
23223;BME280;11780;13.904;100.620;2023-01-10T01:13:04;101373.06;;;28.70;62.51
23223;BME280;11780;13.904;100.620;2023-01-10T01:15:35;101381.59;;;28.74;62.66
23223;BME280;11780;13.904;100.620;2023-01-10T01:18:06;101384.91;;;28.71;62.63
23223;BME280;11780;13.904;100.620;2023-01-10T01:20:38;101388.78;;;28.70;62.79
23223;BME280;11780;13.904;100.620;2023-01-10T01:23:08;101389.06;;;28.68;62.28
23223;BME280;11780;13.904;100.620;2023-01-10T01:25:57;101400.38;;;28.67;62.11
23223;BME280;11780;13.904;100.620;2023-01-10T01:28:27;101400.06;;;28.68;62.12
23223;BME280;11780;13.904;100.620;2023-01-10T01:30:57;101403.94;;;28.67;61.99
23223;BME280;11780;13.904;100.620;2023-01-10T01:33:27;101407.00;;;28.66;62.00
23223;BME280;11780;13.904;100.620;2023-01-10T01:35:57;101411.38;;;28.67;62.12
23223;BME280;11780;13.904;100.620;2023-01-10T01:38:27;101406.41;;;28.69;62.25
23223;BME280;11780;13.904;100.620;2023-01-10T01:40:57;101403.66;;;28.69;62.07
23223;BME280;11780;13.904;100.620;2023-01-10T01:43:28;101409.16;;;28.69;62.10
23223;BME280;11780;13.904;100.620;2023-01-10T01:46:03;101403.66;;;28.69;62.04
23223;BME280;11780;13.904;100.620;2023-01-10T01:48:38;101415.72;;;28.73;61.99
23223;BME280;11780;13.904;100.620;2023-01-10T01:51:12;101416.84;;;28.72;62.09
23223;BME280;11780;13.904;100.620;2023-01-10T01:53:50;101410.81;;;28.70;62.04
23223;BME280;11780;13.904;100.620;2023-01-10T01:59:02;101417.94;;;28.71;62.42
23223;BME280;11780;13.904;100.620;2023-01-10T02:01:39;101421.28;;;28.68;62.97
23223;BME280;11780;13.904;100.620;2023-01-10T02:04:23;101423.72;;;28.69;63.07
23223;BME280;11780;13.904;100.620;2023-01-10T02:06:57;101430.03;;;28.75;62.39
23223;BME280;11780;13.904;100.620;2023-01-10T02:12:09;101428.91;;;28.76;62.23
23223;BME280;11780;13.904;100.620;2023-01-10T02:14:42;101430.56;;;28.77;62.13
23223;BME280;11780;13.904;100.620;2023-01-10T02:17:13;101419.84;;;28.76;62.40
23223;BME280;11780;13.904;100.620;2023-01-10T02:25:17;101422.84;;;28.79;62.19
23223;BME280;11780;13.904;100.620;2023-01-10T02:33:48;101424.47;;;28.80;62.19
23223;BME280;11780;13.904;100.620;2023-01-10T02:36:37;101419.50;;;28.82;62.13
23223;BME280;11780;13.904;100.620;2023-01-10T02:39:35;101419.19;;;28.84;62.11
23223;BME280;11780;13.904;100.620;2023-01-10T02:45:13;101416.75;;;28.82;62.23
23223;BME280;11780;13.904;100.620;2023-01-10T02:47:46;101412.88;;;28.83;62.14
23223;BME280;11780;13.904;100.620;2023-01-10T02:50:29;101407.38;;;28.83;62.44
23223;BME280;11780;13.904;100.620;2023-01-10T02:53:04;101410.13;;;28.83;62.68
23223;BME280;11780;13.904;100.620;2023-01-10T03:12:41;101411.19;;;28.88;61.98
23223;BME280;11780;13.904;100.620;2023-01-10T03:15:16;101412.31;;;28.86;62.05
23223;BME280;11780;13.904;100.620;2023-01-10T03:17:51;101412.00;;;28.88;61.69
23223;BME280;11780;13.904;100.620;2023-01-10T03:20:24;101415.28;;;28.90;61.86
23223;BME280;11780;13.904;100.620;2023-01-10T03:22:55;101415.56;;;28.89;61.86
23223;BME280;11780;13.904;100.620;2023-01-10T03:25:27;101419.69;;;28.91;61.55
23223;BME280;11780;13.904;100.620;2023-01-10T03:28:40;101411.69;;;28.90;61.80
23223;BME280;11780;13.904;100.620;2023-01-10T03:31:12;101408.13;;;28.89;62.31
23223;BME280;11780;13.904;100.620;2023-01-10T03:33:43;101408.94;;;28.90;62.12
23223;BME280;11780;13.904;100.620;2023-01-10T03:42:13;101407.56;;;28.92;62.42
23223;BME280;11780;13.904;100.620;2023-01-10T03:45:11;101398.44;;;28.92;61.86
23223;BME280;11780;13.904;100.620;2023-01-10T03:47:50;101402.84;;;28.93;61.31
23223;BME280;11780;13.904;100.620;2023-01-10T03:50:25;101395.69;;;28.92;61.18
23223;BME280;11780;13.904;100.620;2023-01-10T03:52:56;101392.34;;;28.95;61.20
23223;BME280;11780;13.904;100.620;2023-01-10T03:55:27;101391.56;;;28.94;61.57
23223;BME280;11780;13.904;100.620;2023-01-10T03:57:59;101386.84;;;28.95;61.37
23223;BME280;11780;13.904;100.620;2023-01-10T04:00:28;101385.75;;;28.96;60.88
23223;BME280;11780;13.904;100.620;2023-01-10T04:02:59;101383.00;;;28.96;60.88
23223;BME280;11780;13.904;100.620;2023-01-10T04:05:29;101376.38;;;28.97;60.79
23223;BME280;11780;13.904;100.620;2023-01-10T04:07:59;101374.13;;;28.99;61.26
23223;BME280;11780;13.904;100.620;2023-01-10T04:10:29;101367.78;;;28.98;61.37
23223;BME280;11780;13.904;100.620;2023-01-10T04:13:00;101372.19;;;28.99;60.90
23223;BME280;11780;13.904;100.620;2023-01-10T04:15:31;101369.44;;;28.99;61.53
23223;BME280;11780;13.904;100.620;2023-01-10T04:18:01;101357.63;;;28.99;61.59
23223;BME280;11780;13.904;100.620;2023-01-10T04:20:31;101357.63;;;28.99;61.60
23223;BME280;11780;13.904;100.620;2023-01-10T04:23:01;101356.19;;;29.01;61.06
23223;BME280;11780;13.904;100.620;2023-01-10T04:25:31;101342.41;;;29.01;61.27
23223;BME280;11780;13.904;100.620;2023-01-10T04:28:01;101346.00;;;29.02;61.25
23223;BME280;11780;13.904;100.620;2023-01-10T04:30:31;101340.78;;;29.00;61.35
23223;BME280;11780;13.904;100.620;2023-01-10T04:33:00;101329.75;;;29.00;61.27
23223;BME280;11780;13.904;100.620;2023-01-10T04:35:32;101322.88;;;29.03;61.20
23223;BME280;11780;13.904;100.620;2023-01-10T04:38:02;101321.72;;;29.04;61.02
23223;BME280;11780;13.904;100.620;2023-01-10T04:40:32;101310.22;;;29.02;61.27
23223;BME280;11780;13.904;100.620;2023-01-10T04:43:02;101305.19;;;29.04;61.20
23223;BME280;11780;13.904;100.620;2023-01-10T04:45:32;101299.69;;;29.04;61.22
23223;BME280;11780;13.904;100.620;2023-01-10T04:48:02;101302.16;;;29.06;61.27
23223;BME280;11780;13.904;100.620;2023-01-10T04:50:33;101293.59;;;29.07;60.96
23223;BME280;11780;13.904;100.620;2023-01-10T04:53:02;101289.19;;;29.06;61.13
23223;BME280;11780;13.904;100.620;2023-01-10T04:55:33;101277.38;;;29.06;61.08
23223;BME280;11780;13.904;100.620;2023-01-10T04:58:03;101284.22;;;29.08;61.39
23223;BME280;11780;13.904;100.620;2023-01-10T05:00:33;101278.19;;;29.06;61.31
23223;BME280;11780;13.904;100.620;2023-01-10T05:03:04;101268.00;;;29.07;61.67
23223;BME280;11780;13.904;100.620;2023-01-10T05:05:34;101268.50;;;29.09;61.17
23223;BME280;11780;13.904;100.620;2023-01-10T05:08:04;101264.66;;;29.10;61.32
23223;BME280;11780;13.904;100.620;2023-01-10T05:10:36;101259.13;;;29.10;61.35
23223;BME280;11780;13.904;100.620;2023-01-10T05:13:06;101261.59;;;29.11;61.49
23223;BME280;11780;13.904;100.620;2023-01-10T05:15:37;101253.63;;;29.10;61.17
23223;BME280;11780;13.904;100.620;2023-01-10T05:18:07;101235.66;;;29.12;61.17
23223;BME280;11780;13.904;100.620;2023-01-10T05:20:37;101238.13;;;29.14;61.09
23223;BME280;11780;13.904;100.620;2023-01-10T05:23:07;101236.19;;;29.14;61.11
23223;BME280;11780;13.904;100.620;2023-01-10T05:25:37;101227.09;;;29.14;60.87
23223;BME280;11780;13.904;100.620;2023-01-10T05:28:07;101225.19;;;29.14;61.22
23223;BME280;11780;13.904;100.620;2023-01-10T05:30:37;101220.19;;;29.16;61.04
23223;BME280;11780;13.904;100.620;2023-01-10T05:33:07;101209.16;;;29.16;61.33
23223;BME280;11780;13.904;100.620;2023-01-10T05:35:37;101217.13;;;29.18;61.11
23223;BME280;11780;13.904;100.620;2023-01-10T05:38:07;101208.06;;;29.17;61.21
23223;BME280;11780;13.904;100.620;2023-01-10T05:40:37;101215.19;;;29.19;61.19
23223;BME280;11780;13.904;100.620;2023-01-10T05:43:07;101198.66;;;29.19;61.13
23223;BME280;11780;13.904;100.620;2023-01-10T05:45:37;101195.91;;;29.19;60.83
23223;BME280;11780;13.904;100.620;2023-01-10T05:48:07;101194.81;;;29.20;61.04
23223;BME280;11780;13.904;100.620;2023-01-10T05:50:37;101188.13;;;29.21;61.06
23223;BME280;11780;13.904;100.620;2023-01-10T05:53:07;101182.63;;;29.21;60.95
23223;BME280;11780;13.904;100.620;2023-01-10T05:55:38;101176.31;;;29.20;60.84
23223;BME280;11780;13.904;100.620;2023-01-10T05:58:09;101174.09;;;29.22;60.96
23223;BME280;11780;13.904;100.620;2023-01-10T06:00:42;101170.22;;;29.23;61.14
23223;BME280;11780;13.904;100.620;2023-01-10T06:03:12;101157.56;;;29.22;60.70
23223;BME280;11780;13.904;100.620;2023-01-10T06:05:42;101162.22;;;29.22;61.04
23223;BME280;11780;13.904;100.620;2023-01-10T06:08:15;101148.97;;;29.24;60.70
23223;BME280;11780;13.904;100.620;2023-01-10T06:10:45;101148.16;;;29.23;60.74
23223;BME280;11780;13.904;100.620;2023-01-10T06:13:15;101141.53;;;29.24;60.84
23223;BME280;11780;13.904;100.620;2023-01-10T06:15:46;101139.59;;;29.25;60.83
23223;BME280;11780;13.904;100.620;2023-01-10T06:18:17;101129.69;;;29.24;60.85
23223;BME280;11780;13.904;100.620;2023-01-10T06:20:47;101126.66;;;29.25;60.57
23223;BME280;11780;13.904;100.620;2023-01-10T06:23:17;101126.13;;;29.23;60.75
23223;BME280;11780;13.904;100.620;2023-01-10T06:25:49;101117.53;;;29.25;60.81
23223;BME280;11780;13.904;100.620;2023-01-10T06:28:20;101110.41;;;29.24;61.01
23223;BME280;11780;13.904;100.620;2023-01-10T06:30:50;101114.78;;;29.25;60.85
23223;BME280;11780;13.904;100.620;2023-01-10T06:33:20;101106.53;;;29.25;60.86
23223;BME280;11780;13.904;100.620;2023-01-10T06:35:50;101093.28;;;29.27;61.00
23223;BME280;11780;13.904;100.620;2023-01-10T06:38:21;101095.72;;;29.28;60.84
23223;BME280;11780;13.904;100.620;2023-01-10T06:40:51;101084.69;;;29.28;60.88
23223;BME280;11780;13.904;100.620;2023-01-10T06:43:21;101080.00;;;29.29;60.95
23223;BME280;11780;13.904;100.620;2023-01-10T06:45:52;101076.13;;;29.30;60.91
23223;BME280;11780;13.904;100.620;2023-01-10T06:48:23;101073.06;;;29.31;60.78
23223;BME280;11780;13.904;100.620;2023-01-10T06:50:53;101066.44;;;29.32;60.54
23223;BME280;11780;13.904;100.620;2023-01-10T06:53:23;101060.13;;;29.32;60.48
23223;BME280;11780;13.904;100.620;2023-01-10T06:55:56;101066.44;;;29.32;60.72
23223;BME280;11780;13.904;100.620;2023-01-10T06:58:26;101050.72;;;29.33;60.69
23223;BME280;11780;13.904;100.620;2023-01-10T07:00:56;101062.31;;;29.35;60.48
23223;BME280;11780;13.904;100.620;2023-01-10T07:03:26;101049.09;;;29.32;60.76
23223;BME280;11780;13.904;100.620;2023-01-10T07:06:00;101058.16;;;29.32;60.52
23223;BME280;11780;13.904;100.620;2023-01-10T07:08:30;101045.22;;;29.33;60.82
23223;BME280;11780;13.904;100.620;2023-01-10T07:11:01;101047.69;;;29.35;60.82
23223;BME280;11780;13.904;100.620;2023-01-10T07:13:30;101029.50;;;29.33;60.86
23223;BME280;11780;13.904;100.620;2023-01-10T07:16:05;101039.44;;;29.35;60.90
23223;BME280;11780;13.904;100.620;2023-01-10T07:18:39;101025.66;;;29.35;60.93
23223;BME280;11780;13.904;100.620;2023-01-10T07:21:10;101026.47;;;29.35;60.71
23223;BME280;11780;13.904;100.620;2023-01-10T07:23:40;101028.59;;;29.38;60.93
23223;BME280;11780;13.904;100.620;2023-01-10T07:26:11;101021.16;;;29.39;60.63
23223;BME280;11780;13.904;100.620;2023-01-10T07:28:48;101013.69;;;29.39;60.43
23223;BME280;11780;13.904;100.620;2023-01-10T07:31:22;101016.47;;;29.39;60.49
23223;BME280;11780;13.904;100.620;2023-01-10T07:33:53;101013.09;;;29.42;60.70
23223;BME280;11780;13.904;100.620;2023-01-10T07:36:23;101012.91;;;29.39;60.29
23223;BME280;11780;13.904;100.620;2023-01-10T07:38:53;100999.63;;;29.41;60.52
23223;BME280;11780;13.904;100.620;2023-01-10T07:41:23;101001.88;;;29.39;60.44
23223;BME280;11780;13.904;100.620;2023-01-10T07:43:53;101004.31;;;29.40;60.64
23223;BME280;11780;13.904;100.620;2023-01-10T07:46:22;100997.16;;;29.39;60.57
23223;BME280;11780;13.904;100.620;2023-01-10T07:48:53;100991.66;;;29.39;60.57
23223;BME280;11780;13.904;100.620;2023-01-10T07:51:23;100994.91;;;29.41;60.71
23223;BME280;11780;13.904;100.620;2023-01-10T07:53:53;100989.41;;;29.41;60.64
23223;BME280;11780;13.904;100.620;2023-01-10T07:56:23;100990.53;;;29.40;60.87
23223;BME280;11780;13.904;100.620;2023-01-10T07:58:54;100986.66;;;29.41;60.44
23223;BME280;11780;13.904;100.620;2023-01-10T08:01:24;100986.38;;;29.43;60.43
23223;BME280;11780;13.904;100.620;2023-01-10T08:03:55;100987.16;;;29.43;60.64
23223;BME280;11780;13.904;100.620;2023-01-10T08:06:26;100987.16;;;29.43;60.73
23223;BME280;11780;13.904;100.620;2023-01-10T08:08:56;100983.59;;;29.43;60.81
23223;BME280;11780;13.904;100.620;2023-01-10T08:11:26;100984.41;;;29.43;60.70
23223;BME280;11780;13.904;100.620;2023-01-10T08:13:56;100978.09;;;29.43;60.82
23223;BME280;11780;13.904;100.620;2023-01-10T08:16:26;100978.56;;;29.45;60.79
23223;BME280;11780;13.904;100.620;2023-01-10T08:18:56;100977.16;;;29.47;60.69
23223;BME280;11780;13.904;100.620;2023-01-10T08:21:26;100975.53;;;29.46;60.69
23223;BME280;11780;13.904;100.620;2023-01-10T08:23:56;100983.47;;;29.48;60.84
23223;BME280;11780;13.904;100.620;2023-01-10T08:26:26;100977.78;;;29.44;60.69
23223;BME280;11780;13.904;100.620;2023-01-10T08:28:56;100974.69;;;29.46;60.82
23223;BME280;11780;13.904;100.620;2023-01-10T08:31:27;100979.09;;;29.47;61.17
23223;BME280;11780;13.904;100.620;2023-01-10T08:33:57;100979.41;;;29.45;60.84
23223;BME280;11780;13.904;100.620;2023-01-10T08:36:27;100973.91;;;29.45;60.99
23223;BME280;11780;13.904;100.620;2023-01-10T08:39:00;100987.34;;;29.47;60.63
23223;BME280;11780;13.904;100.620;2023-01-10T08:41:30;100976.94;;;29.44;60.87
23223;BME280;11780;13.904;100.620;2023-01-10T08:44:00;100971.66;;;29.47;60.83
23223;BME280;11780;13.904;100.620;2023-01-10T08:46:30;100974.69;;;29.46;60.80
23223;BME280;11780;13.904;100.620;2023-01-10T08:48:59;100975.53;;;29.46;60.97
23223;BME280;11780;13.904;100.620;2023-01-10T08:51:29;100977.16;;;29.47;60.77
23223;BME280;11780;13.904;100.620;2023-01-10T08:53:59;100978.81;;;29.49;60.91
23223;BME280;11780;13.904;100.620;2023-01-10T08:56:31;100990.63;;;29.49;60.93
23223;BME280;11780;13.904;100.620;2023-01-10T08:59:01;100981.25;;;29.50;60.71
23223;BME280;11780;13.904;100.620;2023-01-10T09:01:32;100987.88;;;29.49;60.59
23223;BME280;11780;13.904;100.620;2023-01-10T09:04:03;100983.19;;;29.50;60.84
23223;BME280;11780;13.904;100.620;2023-01-10T09:06:33;100981.25;;;29.50;60.86
23223;BME280;11780;13.904;100.620;2023-01-10T09:09:04;100980.72;;;29.48;60.78
23223;BME280;11780;13.904;100.620;2023-01-10T09:11:35;100976.34;;;29.47;60.60
23223;BME280;11780;13.904;100.620;2023-01-10T09:14:08;100989.81;;;29.49;60.61
23223;BME280;11780;13.904;100.620;2023-01-10T09:16:38;100976.34;;;29.47;60.61
23223;BME280;11780;13.904;100.620;2023-01-10T09:19:09;100982.38;;;29.49;60.61
23223;BME280;11780;13.904;100.620;2023-01-10T09:21:39;100986.25;;;29.48;60.73
23223;BME280;11780;13.904;100.620;2023-01-10T09:24:09;100988.69;;;29.50;60.76
23223;BME280;11780;13.904;100.620;2023-01-10T09:26:39;100991.47;;;29.50;60.96
23223;BME280;11780;13.904;100.620;2023-01-10T09:29:10;100982.69;;;29.47;60.96
23223;BME280;11780;13.904;100.620;2023-01-10T09:31:40;100991.75;;;29.48;60.88
23223;BME280;11780;13.904;100.620;2023-01-10T09:34:10;100985.94;;;29.50;60.96
23223;BME280;11780;13.904;100.620;2023-01-10T09:36:40;100988.69;;;29.50;61.16
23223;BME280;11780;13.904;100.620;2023-01-10T09:39:10;100985.13;;;29.49;60.97
23223;BME280;11780;13.904;100.620;2023-01-10T09:47:31;100989.81;;;29.49;60.96
23223;BME280;11780;13.904;100.620;2023-01-10T09:53:19;100996.97;;;29.50;60.87
23223;BME280;11780;13.904;100.620;2023-01-10T09:55:56;101001.38;;;29.51;60.85
23223;BME280;11780;13.904;100.620;2023-01-10T09:58:30;100997.25;;;29.48;60.75
23223;BME280;11780;13.904;100.620;2023-01-10T10:01:06;101005.25;;;29.50;60.86
23223;BME280;11780;13.904;100.620;2023-01-10T10:06:48;101010.44;;;29.51;60.84
23223;BME280;11780;13.904;100.620;2023-01-10T10:09:23;101013.19;;;29.51;60.71
23223;BME280;11780;13.904;100.620;2023-01-10T10:12:23;101007.69;;;29.51;61.39
23223;BME280;11780;13.904;100.620;2023-01-10T10:15:06;101008.47;;;29.52;61.44
23223;BME280;11780;13.904;100.620;2023-01-10T10:18:00;101012.06;;;29.52;61.25
23223;BME280;11780;13.904;100.620;2023-01-10T10:29:13;101021.47;;;29.51;61.51
23223;BME280;11780;13.904;100.620;2023-01-10T10:35:07;101016.75;;;29.52;61.45
23223;BME280;11780;13.904;100.620;2023-01-10T10:37:49;101015.44;;;29.49;61.16
23223;BME280;11780;13.904;100.620;2023-01-10T10:40:22;101022.06;;;29.48;61.24
23223;BME280;11780;13.904;100.620;2023-01-10T10:42:56;101028.09;;;29.50;61.45
23223;BME280;11780;13.904;100.620;2023-01-10T10:45:31;101020.16;;;29.49;61.49
23223;BME280;11780;13.904;100.620;2023-01-10T10:48:26;101028.09;;;29.50;61.36
23223;BME280;11780;13.904;100.620;2023-01-10T10:53:48;101033.09;;;29.48;61.87
23223;BME280;11780;13.904;100.620;2023-01-10T10:56:23;101042.19;;;29.49;61.60
23223;BME280;11780;13.904;100.620;2023-01-10T10:58:57;101037.81;;;29.47;61.84
23223;BME280;11780;13.904;100.620;2023-01-10T11:01:28;101038.31;;;29.50;61.58
23223;BME280;11780;13.904;100.620;2023-01-10T11:04:01;101045.75;;;29.49;61.60
23223;BME280;11780;13.904;100.620;2023-01-10T11:06:35;101039.44;;;29.49;61.80
23223;BME280;11780;13.904;100.620;2023-01-10T11:09:07;101053.72;;;29.51;61.90
23223;BME280;11780;13.904;100.620;2023-01-10T11:11:42;101052.09;;;29.50;62.01
23223;BME280;11780;13.904;100.620;2023-01-10T11:14:14;101050.75;;;29.47;61.80
23223;BME280;11780;13.904;100.620;2023-01-10T11:16:44;101049.63;;;29.48;61.64
23223;BME280;11780;13.904;100.620;2023-01-10T11:19:23;101050.22;;;29.45;62.01
23223;BME280;11780;13.904;100.620;2023-01-10T11:22:02;101058.22;;;29.46;62.12
23223;BME280;11780;13.904;100.620;2023-01-10T11:24:38;101062.59;;;29.47;61.99
23223;BME280;11780;13.904;100.620;2023-01-10T11:27:18;101062.09;;;29.45;62.29
23223;BME280;11780;13.904;100.620;2023-01-10T11:30:05;101071.47;;;29.44;62.56
23223;BME280;11780;13.904;100.620;2023-01-10T11:32:46;101069.03;;;29.43;62.36
23223;BME280;11780;13.904;100.620;2023-01-10T11:35:26;101070.66;;;29.44;62.62
23223;BME280;11780;13.904;100.620;2023-01-10T11:38:18;101069.53;;;29.45;62.55
23223;BME280;11780;13.904;100.620;2023-01-10T11:46:15;101086.81;;;29.51;62.72
23223;BME280;11780;13.904;100.620;2023-01-10T11:48:59;101091.47;;;29.50;62.57
23223;BME280;11780;13.904;100.620;2023-01-10T11:51:39;101091.28;;;29.46;62.95
23223;BME280;11780;13.904;100.620;2023-01-10T11:54:18;101093.53;;;29.44;62.74
23223;BME280;11780;13.904;100.620;2023-01-10T11:56:57;101095.97;;;29.46;63.07
23223;BME280;11780;13.904;100.620;2023-01-10T11:59:29;101098.19;;;29.44;62.90
23223;BME280;11780;13.904;100.620;2023-01-10T12:04:54;101105.97;;;29.42;63.18
23223;BME280;11780;13.904;100.620;2023-01-10T12:07:26;101098.84;;;29.41;63.25
23223;BME280;11780;13.904;100.620;2023-01-10T12:09:59;101105.16;;;29.41;63.27
23223;BME280;11780;13.904;100.620;2023-01-10T12:12:32;101120.06;;;29.40;63.17
23223;BME280;11780;13.904;100.620;2023-01-10T12:17:52;101113.75;;;29.40;63.12
23223;BME280;11780;13.904;100.620;2023-01-10T12:20:27;101120.88;;;29.41;63.47
23223;BME280;11780;13.904;100.620;2023-01-10T12:23:07;101127.19;;;29.41;63.16
23223;BME280;11780;13.904;100.620;2023-01-10T12:25:41;101129.16;;;29.41;63.34
23223;BME280;11780;13.904;100.620;2023-01-10T12:28:27;101134.94;;;29.39;63.19
23223;BME280;11780;13.904;100.620;2023-01-10T12:30:59;101140.19;;;29.41;63.44
23223;BME280;11780;13.904;100.620;2023-01-10T12:33:58;101139.34;;;29.40;63.18
23223;BME280;11780;13.904;100.620;2023-01-10T12:36:35;101148.72;;;29.39;63.17
23223;BME280;11780;13.904;100.620;2023-01-10T12:39:21;101152.59;;;29.38;63.28
23223;BME280;11780;13.904;100.620;2023-01-10T12:42:03;101160.88;;;29.38;63.46
23223;BME280;11780;13.904;100.620;2023-01-10T12:45:07;101163.94;;;29.37;63.60
23223;BME280;11780;13.904;100.620;2023-01-10T12:48:00;101164.47;;;29.39;63.87
23223;BME280;11780;13.904;100.620;2023-01-10T12:50:40;101166.69;;;29.37;63.61
23223;BME280;11780;13.904;100.620;2023-01-10T12:53:34;101164.25;;;29.35;63.50
23223;BME280;11780;13.904;100.620;2023-01-10T12:56:08;101159.84;;;29.34;63.86
23223;BME280;11780;13.904;100.620;2023-01-10T12:58:43;101163.63;;;29.38;63.59
23223;BME280;11780;13.904;100.620;2023-01-10T13:01:19;101174.38;;;29.40;63.43
23223;BME280;11780;13.904;100.620;2023-01-10T13:04:00;101176.00;;;29.41;63.57
23223;BME280;11780;13.904;100.620;2023-01-10T13:06:32;101179.56;;;29.41;63.65
23223;BME280;11780;13.904;100.620;2023-01-10T13:09:24;101182.84;;;29.43;63.42
23223;BME280;11780;13.904;100.620;2023-01-10T13:15:08;101183.75;;;29.39;63.57
23223;BME280;11780;13.904;100.620;2023-01-10T13:17:48;101192.53;;;29.41;64.15
23223;BME280;11780;13.904;100.620;2023-01-10T13:20:26;101198.06;;;29.41;64.00
23223;BME280;11780;13.904;100.620;2023-01-10T13:22:58;101196.69;;;29.38;63.72
23223;BME280;11780;13.904;100.620;2023-01-10T13:25:32;101200.06;;;29.35;63.88
23223;BME280;11780;13.904;100.620;2023-01-10T13:28:23;101204.97;;;29.38;64.70
23223;BME280;11780;13.904;100.620;2023-01-10T13:31:06;101209.44;;;29.34;64.38
23223;BME280;11780;13.904;100.620;2023-01-10T13:34:06;101209.16;;;29.36;64.32
23223;BME280;11780;13.904;100.620;2023-01-10T13:36:43;101214.09;;;29.33;64.70
23223;BME280;11780;13.904;100.620;2023-01-10T13:39:35;101209.72;;;29.32;64.64
23223;BME280;11780;13.904;100.620;2023-01-10T14:29:09;101246.09;;;28.96;66.08
23223;BME280;11780;13.904;100.620;2023-01-10T14:31:45;101239.47;;;28.97;66.11
23223;BME280;11780;13.904;100.620;2023-01-10T14:34:28;101241.94;;;28.99;66.22
23223;BME280;11780;13.904;100.620;2023-01-10T14:37:07;101244.59;;;29.04;66.15
23223;BME280;11780;13.904;100.620;2023-01-10T14:39:41;101259.66;;;29.12;65.78
23223;BME280;11780;13.904;100.620;2023-01-10T14:42:14;101253.25;;;29.16;65.62
23223;BME280;11780;13.904;100.620;2023-01-10T14:44:57;101250.38;;;29.22;65.44
23223;BME280;11780;13.904;100.620;2023-01-10T14:47:29;101258.06;;;29.25;65.60
23223;BME280;11780;13.904;100.620;2023-01-10T14:50:00;101252.75;;;29.28;65.19
23223;BME280;11780;13.904;100.620;2023-01-10T14:52:31;101248.09;;;29.29;65.10
23223;BME280;11780;13.904;100.620;2023-01-10T14:55:16;101257.41;;;29.33;65.02
23223;BME280;11780;13.904;100.620;2023-01-10T14:58:01;101260.16;;;29.33;64.88
23223;BME280;11780;13.904;100.620;2023-01-10T15:00:33;101255.19;;;29.35;65.01
23223;BME280;11780;13.904;100.620;2023-01-10T15:03:17;101254.63;;;29.33;64.75
23223;BME280;11780;13.904;100.620;2023-01-10T15:05:51;101252.44;;;29.35;64.54
23223;BME280;11780;13.904;100.620;2023-01-10T15:08:25;101262.31;;;29.36;64.67
23223;BME280;11780;13.904;100.620;2023-01-10T15:11:06;101260.69;;;29.35;64.64
23223;BME280;11780;13.904;100.620;2023-01-10T15:13:51;101263.16;;;29.37;64.43
23223;BME280;11780;13.904;100.620;2023-01-10T15:16:25;101263.94;;;29.37;64.36